Cusseta, Alabama
Current Conditions -  °F | °C
As of 2:15 PM on Thursday 30 Oct 2014 (Local Time) from KAUO Reporting Station
Clear Clear  
Wind Chill: 66°   Ceiling: Unl
Heat Index: 66°   Visibility: 10mi
Dew Point: 34°   Wind: 9mph
Humidity: 30%   Direction: 40°NE
Pressure: 30.03"   Gusts: NA
Location:  32.79°N, 85.31°W
Report Text: KAUO 301915Z AUTO 04008KT 10SM CLR 19/01 A3003 RMK AO1
Loading
Personal Weather Stations






























Interactive Weather Map
Tropical Storm Tracking
New forecast layout! Learn more

10-Day Weather Forecast

Advertisements
Track Severe Weather on mobile